NCAR-RAP Real-Time Weather Data

Output produced by METARs form (02 September 2015  23:47 UTC)
found at http://weather.rap.ucar.edu/surface/
 
Conditions at: KSDF observed 02 September 2015  22:56 UTC
Temperature: 31.7°C (89°F)
Dewpoint: 18.3°C (65°F) [RH = 45%]
Pressure (altimeter): 30.00 inches Hg (1016.0 mb)
[Sea-level pressure: 1015.4 mb]
Winds: from the SSW (210 degrees) at 7 MPH (6 knots; 3.1 m/s)
Visibility: 7 miles (11 km)
Ceiling: at least 12,000 feet AGL
Clouds: few clouds at 5500 feet AGL
Present Weather: no significant weather observed at this time
KSDF 022256Z 21006KT 7SM FEW055 32/18 A3000 RMK AO2 SLP154 T03170183